Time;durP1;ratioP1;P1;durP2;ratioP2;P2;SDS_P1;SDS_P2;PMS_P1;PMS_P2;Temp;Humidity;BMP_temperature;BMP_pressure;BME280_temperature;BME280_humidity;BME280_pressure;Samples;Min_cycle;Max_cycle;Signal;HPM_P1;HPM_P2
2022/04/03 00:00:42;;;;;;;0.60;0.60;;;21.00;99.90;;;;;;5056489;28;20255;-79
2022/04/03 00:03:13;;;;;;;2.10;0.60;;;21.10;99.90;;;;;;5052955;28;20278;-83
2022/04/03 00:05:44;;;;;;;1.60;0.73;;;21.20;99.90;;;;;;5053174;28;20636;-83
2022/04/03 00:08:15;;;;;;;0.85;0.50;;;21.20;99.90;;;;;;5051742;28;20200;-78
2022/04/03 00:10:48;;;;;;;3.00;0.70;;;21.20;99.90;;;;;;5052258;28;20637;-77
2022/04/03 00:13:21;;;;;;;2.35;0.80;;;21.10;99.90;;;;;;5051646;28;20221;-79
2022/04/03 00:15:52;;;;;;;2.72;0.90;;;21.10;99.90;;;;;;5048030;28;20212;-82
2022/04/03 00:18:25;;;;;;;35.17;23.15;;;21.30;99.90;;;;;;5051932;28;20311;-77
2022/04/03 00:20:56;;;;;;;8.55;4.90;;;21.40;99.90;;;;;;5052075;28;20251;-82
2022/04/03 00:23:26;;;;;;;6.22;3.65;;;21.50;99.90;;;;;;5051595;28;20182;-79
2022/04/03 00:25:57;;;;;;;4.75;2.85;;;21.60;99.90;;;;;;5052153;28;20190;-86
2022/04/03 00:28:30;;;;;;;1.45;0.88;;;21.70;99.90;;;;;;5051018;28;20197;-79
2022/04/03 00:31:01;;;;;;;1.15;0.60;;;21.80;99.90;;;;;;5051906;28;20255;-81
2022/04/03 00:33:32;;;;;;;3.13;1.27;;;21.90;99.90;;;;;;5051364;28;20224;-80
2022/04/03 00:36:03;;;;;;;5.15;1.10;;;22.00;99.90;;;;;;5051778;28;20543;-84
2022/04/03 00:38:33;;;;;;;1.75;0.85;;;22.00;99.90;;;;;;5052054;28;20194;-80
2022/04/03 00:41:05;;;;;;;3.03;1.30;;;22.00;99.90;;;;;;5052112;28;20190;-82
2022/04/03 00:43:37;;;;;;;2.60;0.80;;;21.90;99.90;;;;;;5051443;28;20197;-84
2022/04/03 00:46:09;;;;;;;4.53;0.85;;;21.70;99.90;;;;;;5049537;28;20221;-84
2022/04/03 00:48:40;;;;;;;2.50;0.73;;;21.70;99.90;;;;;;5055834;28;20236;-79
2022/04/03 00:51:12;;;;;;;2.13;0.68;;;21.90;99.90;;;;;;5052256;28;20194;-77
2022/04/03 00:53:42;;;;;;;2.50;0.80;;;22.20;99.90;;;;;;5052012;28;20601;-78
2022/04/03 00:56:13;;;;;;;1.27;0.60;;;22.30;99.90;;;;;;5049735;28;20204;-75
2022/04/03 00:58:46;;;;;;;6.63;1.73;;;22.30;99.90;;;;;;5051761;28;20194;-80
2022/04/03 01:01:17;;;;;;;2.35;1.00;;;22.20;99.90;;;;;;5042980;28;20710;-76
2022/04/03 01:03:48;;;;;;;3.78;0.90;;;22.20;99.90;;;;;;5051548;28;20186;-79
2022/04/03 01:06:19;;;;;;;1.23;0.60;;;22.30;99.90;;;;;;5050096;28;20214;-81
2022/04/03 01:08:50;;;;;;;6.65;1.35;;;22.50;99.90;;;;;;5051480;28;20679;-87
2022/04/03 01:11:23;;;;;;;3.33;0.90;;;22.80;99.90;;;;;;5050963;28;20255;-79
2022/04/03 01:13:56;;;;;;;2.47;0.98;;;23.00;99.90;;;;;;5051219;28;20297;-75
2022/04/03 01:16:27;;;;;;;2.20;0.60;;;23.00;99.90;;;;;;5041802;28;20586;-75
2022/04/03 01:18:57;;;;;;;2.13;0.90;;;22.90;99.90;;;;;;5050059;28;20205;-76
2022/04/03 01:21:28;;;;;;;2.00;0.90;;;22.80;99.90;;;;;;5050839;28;20645;-74
2022/04/03 01:23:59;;;;;;;3.47;0.70;;;22.70;99.90;;;;;;5051565;28;20195;-77
2022/04/03 01:26:31;;;;;;;1.90;0.90;;;22.90;99.90;;;;;;5054257;28;20190;-74
2022/04/03 01:29:02;;;;;;;2.40;0.70;;;22.90;99.90;;;;;;5055549;28;20247;-75
2022/04/03 01:31:32;;;;;;;1.98;0.68;;;22.90;99.90;;;;;;5054053;28;20190;-73
2022/04/03 01:34:03;;;;;;;2.95;0.98;;;23.00;99.90;;;;;;5055168;28;20624;-78
2022/04/03 01:36:34;;;;;;;2.85;0.63;;;23.20;99.90;;;;;;5053868;28;20239;-78
2022/04/03 01:39:05;;;;;;;4.03;0.77;;;23.40;99.90;;;;;;5054140;28;20186;-79
2022/04/03 01:41:37;;;;;;;1.20;0.60;;;23.70;99.90;;;;;;5054382;28;20194;-76
2022/04/03 01:44:08;;;;;;;2.33;0.73;;;23.80;99.90;;;;;;5053750;28;20244;-74
2022/04/03 01:46:40;;;;;;;2.28;0.60;;;24.00;99.90;;;;;;5053722;28;20737;-76
2022/04/03 01:49:11;;;;;;;3.60;0.63;;;24.00;99.90;;;;;;5062292;28;20429;-78
2022/04/03 01:51:42;;;;;;;1.15;0.60;;;23.90;99.90;;;;;;5054512;28;20182;-77
2022/04/03 01:54:13;;;;;;;2.42;0.65;;;23.90;99.90;;;;;;5054766;28;20213;-80
2022/04/03 01:56:45;;;;;;;4.30;0.80;;;24.10;99.90;;;;;;5053028;28;20206;-74
2022/04/03 01:59:17;;;;;;;3.17;0.70;;;24.20;99.90;;;;;;5047207;28;20652;-74
2022/04/03 02:01:47;;;;;;;3.85;0.73;;;24.30;99.90;;;;;;5047655;28;20686;-79
2022/04/03 02:04:18;;;;;;;1.83;0.70;;;24.40;99.90;;;;;;5049432;28;20242;-77
2022/04/03 02:06:49;;;;;;;1.73;0.60;;;24.50;99.90;;;;;;5047814;28;20572;-77
2022/04/03 02:09:20;;;;;;;1.60;0.50;;;24.50;99.90;;;;;;5048884;28;20225;-78
2022/04/03 02:11:54;;;;;;;4.63;0.80;;;24.60;99.90;;;;;;5047013;28;20194;-79
2022/04/03 02:14:24;;;;;;;5.88;1.77;;;24.50;99.90;;;;;;5046808;28;20309;-76
2022/04/03 02:16:57;;;;;;;4.43;1.10;;;24.40;99.90;;;;;;5047751;28;20251;-73
2022/04/03 02:19:28;;;;;;;2.00;0.88;;;24.50;99.90;;;;;;5052384;28;20554;-78
2022/04/03 02:21:58;;;;;;;2.58;0.70;;;24.60;99.90;;;;;;5053506;28;20189;-76
2022/04/03 02:24:29;;;;;;;6.75;0.73;;;24.40;99.90;;;;;;5048940;28;20205;-75
2022/04/03 02:27:01;;;;;;;2.17;0.70;;;24.30;99.90;;;;;;5048428;28;20197;-76
2022/04/03 02:29:32;;;;;;;2.97;0.77;;;24.30;99.90;;;;;;5053312;28;21823;-78
2022/04/03 02:32:03;;;;;;;2.97;0.80;;;24.20;99.90;;;;;;5050639;28;20189;-76
2022/04/03 02:34:33;;;;;;;4.10;0.52;;;24.00;99.90;;;;;;5051421;28;20213;-76
2022/04/03 02:37:04;;;;;;;3.17;0.70;;;23.90;99.90;;;;;;5049128;28;20197;-76
2022/04/03 02:39:34;;;;;;;1.25;0.85;;;23.90;99.90;;;;;;5053324;28;20193;-78
2022/04/03 02:42:07;;;;;;;1.65;0.70;;;23.90;99.90;;;;;;5051777;28;20247;-74
2022/04/03 02:44:38;;;;;;;3.40;0.70;;;24.00;99.90;;;;;;5051418;28;20255;-79
2022/04/03 02:47:09;;;;;;;2.83;0.60;;;24.10;99.90;;;;;;5052708;28;20261;-75
2022/04/03 02:49:39;;;;;;;4.40;0.90;;;24.30;99.90;;;;;;5052359;28;20770;-76
2022/04/03 02:52:10;;;;;;;2.47;0.70;;;24.50;99.90;;;;;;5053833;28;20190;-76
2022/04/03 02:54:41;;;;;;;4.10;0.73;;;24.50;99.90;;;;;;5053120;28;20621;-77
2022/04/03 02:57:14;;;;;;;1.48;0.73;;;24.60;99.90;;;;;;5053401;28;20599;-77
2022/04/03 02:59:45;;;;;;;2.38;0.70;;;24.50;99.90;;;;;;5052968;28;20216;-75
2022/04/03 03:02:16;;;;;;;3.95;0.80;;;24.50;99.90;;;;;;5052025;28;20603;-79
2022/04/03 03:04:47;;;;;;;3.65;1.83;;;24.60;99.90;;;;;;5053521;28;20865;-75
2022/04/03 03:07:17;;;;;;;5.10;2.53;;;24.70;99.90;;;;;;5051831;28;20585;-76
2022/04/03 03:09:48;;;;;;;3.10;0.93;;;24.80;99.90;;;;;;5053039;28;20525;-76
2022/04/03 03:12:21;;;;;;;2.22;0.70;;;24.90;99.90;;;;;;5051892;28;20209;-80
2022/04/03 03:14:51;;;;;;;3.85;0.80;;;24.90;99.90;;;;;;5051582;28;20217;-75
2022/04/03 03:17:22;;;;;;;2.50;0.93;;;24.90;99.90;;;;;;5052243;28;20566;-80
2022/04/03 03:19:53;;;;;;;1.13;0.65;;;24.90;99.90;;;;;;5051948;28;20629;-76
2022/04/03 03:22:23;;;;;;;2.65;0.70;;;25.00;99.90;;;;;;5052932;28;20197;-77
2022/04/03 03:24:54;;;;;;;1.27;0.70;;;25.00;99.90;;;;;;5052156;28;20598;-77
2022/04/03 03:27:26;;;;;;;1.58;0.70;;;25.10;99.90;;;;;;5051999;28;20194;-77
2022/04/03 03:29:57;;;;;;;3.17;0.82;;;25.20;99.90;;;;;;5052497;28;20193;-78
2022/04/03 03:32:28;;;;;;;2.42;0.75;;;25.10;99.90;;;;;;5052715;28;20181;-76
2022/04/03 03:34:58;;;;;;;6.95;0.70;;;25.10;99.90;;;;;;5052534;28;20213;-79
2022/04/03 03:37:29;;;;;;;2.50;0.75;;;25.00;99.90;;;;;;5049916;28;20277;-78
2022/04/03 03:40:03;;;;;;;2.00;0.60;;;25.00;99.90;;;;;;5052723;28;20602;-78
2022/04/03 03:42:36;;;;;;;2.08;0.80;;;24.90;99.90;;;;;;5050434;28;20193;-77
2022/04/03 03:45:08;;;;;;;1.75;0.68;;;25.10;99.90;;;;;;5049813;28;20232;-78
2022/04/03 03:47:39;;;;;;;2.60;0.73;;;25.20;99.90;;;;;;5050538;28;20305;-78
2022/04/03 03:50:10;;;;;;;2.20;0.98;;;25.30;99.90;;;;;;5052612;28;20190;-78
2022/04/03 03:52:41;;;;;;;2.95;0.70;;;25.40;99.90;;;;;;5051287;28;20223;-76
2022/04/03 03:55:12;;;;;;;3.65;0.80;;;25.40;99.90;;;;;;5052409;28;20219;-75
2022/04/03 03:57:47;;;;;;;1.77;0.90;;;25.30;99.90;;;;;;5052366;28;20536;-78
2022/04/03 04:00:18;;;;;;;3.70;0.90;;;25.40;99.90;;;;;;5051466;28;20235;-78
2022/04/03 04:02:49;;;;;;;4.25;0.90;;;25.40;99.90;;;;;;5051755;28;20186;-79
2022/04/03 04:05:19;;;;;;;2.30;0.90;;;25.40;99.90;;;;;;5051995;28;20196;-78
2022/04/03 04:07:50;;;;;;;2.42;0.70;;;25.50;99.90;;;;;;5044742;28;20189;-76
2022/04/03 04:10:21;;;;;;;2.10;0.80;;;25.40;99.90;;;;;;5052496;28;20190;-79
2022/04/03 04:12:54;;;;;;;4.18;0.80;;;25.50;99.90;;;;;;5051441;28;20194;-72
2022/04/03 04:15:25;;;;;;;3.15;0.60;;;25.50;99.90;;;;;;5050913;28;20220;-77
2022/04/03 04:17:57;;;;;;;4.40;0.80;;;25.50;99.90;;;;;;5051066;28;20190;-75
2022/04/03 04:20:28;;;;;;;2.08;0.70;;;25.50;99.90;;;;;;5052010;28;20189;-76
2022/04/03 04:22:58;;;;;;;2.08;0.60;;;25.50;99.90;;;;;;5051209;28;20224;-80
2022/04/03 04:25:31;;;;;;;2.78;0.68;;;25.50;99.90;;;;;;5051016;28;20193;-75
2022/04/03 04:28:03;;;;;;;2.38;0.60;;;25.50;99.90;;;;;;5049507;28;20201;-80
2022/04/03 04:30:34;;;;;;;3.70;0.70;;;25.50;99.90;;;;;;5051373;28;20239;-78
2022/04/03 04:33:05;;;;;;;2.85;0.70;;;25.60;99.90;;;;;;5047964;28;20345;-79
2022/04/03 04:35:36;;;;;;;2.60;0.75;;;25.50;99.90;;;;;;5051101;28;20193;-76
2022/04/03 04:38:08;;;;;;;1.25;0.50;;;25.60;99.90;;;;;;5051759;28;20185;-76
2022/04/03 04:40:38;;;;;;;2.40;0.68;;;25.70;99.90;;;;;;5050215;28;20185;-77
2022/04/03 04:43:11;;;;;;;2.80;0.85;;;25.80;99.90;;;;;;5050763;28;20197;-79
2022/04/03 04:45:41;;;;;;;2.20;0.65;;;25.80;99.90;;;;;;5051282;28;20299;-79
2022/04/03 04:48:13;;;;;;;2.78;0.70;;;25.70;99.90;;;;;;5051492;28;20229;-82
2022/04/03 04:50:43;;;;;;;3.10;0.80;;;25.50;99.90;;;;;;5050904;28;20619;-79
2022/04/03 04:53:14;;;;;;;2.67;0.80;;;25.40;99.90;;;;;;5051611;28;20239;-80
2022/04/03 04:55:45;;;;;;;3.10;0.75;;;25.30;99.90;;;;;;5050435;28;20653;-80
2022/04/03 04:58:17;;;;;;;3.08;0.73;;;25.30;99.90;;;;;;5049721;28;20703;-80
2022/04/03 05:00:48;;;;;;;2.83;0.82;;;25.40;99.90;;;;;;5055252;28;20245;-78
2022/04/03 05:03:18;;;;;;;3.72;0.80;;;25.40;99.90;;;;;;5055557;28;20216;-77
2022/04/03 05:05:49;;;;;;;2.17;1.00;;;25.40;99.90;;;;;;5054614;28;20222;-74
2022/04/03 05:08:21;;;;;;;1.23;0.70;;;25.30;99.90;;;;;;5055114;28;20209;-77
2022/04/03 05:10:53;;;;;;;2.75;0.60;;;25.20;99.90;;;;;;5054488;28;20186;-76
2022/04/03 05:13:26;;;;;;;2.00;0.90;;;25.10;99.90;;;;;;5055501;28;20213;-78
2022/04/03 05:15:57;;;;;;;3.78;1.08;;;25.10;99.90;;;;;;5054185;28;20268;-79
2022/04/03 05:18:27;;;;;;;52.92;38.75;;;25.10;99.90;;;;;;5051778;28;20200;-76
2022/04/03 05:20:58;;;;;;;31.45;21.05;;;25.00;99.90;;;;;;5054173;28;20193;-77
2022/04/03 05:23:29;;;;;;;7.18;4.35;;;25.00;99.90;;;;;;5053169;28;20567;-75
2022/04/03 05:25:59;;;;;;;1.73;0.80;;;25.00;99.90;;;;;;5053544;28;20181;-79
2022/04/03 05:28:32;;;;;;;4.07;0.90;;;24.90;99.90;;;;;;5045509;28;20193;-78
2022/04/03 05:31:02;;;;;;;2.10;0.80;;;24.80;99.90;;;;;;5052219;28;20238;-80
2022/04/03 05:33:33;;;;;;;2.50;0.82;;;24.80;99.90;;;;;;5053742;28;20193;-75
2022/04/03 05:36:04;;;;;;;2.35;0.90;;;24.70;99.90;;;;;;5053362;28;20247;-79
2022/04/03 05:38:34;;;;;;;1.60;0.80;;;24.60;99.90;;;;;;5053675;28;20202;-79
2022/04/03 05:41:05;;;;;;;4.35;1.00;;;24.60;99.90;;;;;;5050652;28;20271;-79
2022/04/03 05:43:37;;;;;;;2.53;0.90;;;24.60;99.90;;;;;;5048739;28;20191;-81
2022/04/03 05:46:10;;;;;;;1.80;0.80;;;24.60;99.90;;;;;;5051511;28;20240;-77
2022/04/03 05:48:41;;;;;;;2.50;0.90;;;24.60;99.90;;;;;;5054713;28;20233;-78
2022/04/03 05:51:11;;;;;;;2.50;0.93;;;24.60;99.90;;;;;;5054746;28;20197;-80
2022/04/03 05:53:42;;;;;;;2.70;0.88;;;24.50;99.90;;;;;;5052104;28;20193;-77
2022/04/03 05:56:13;;;;;;;3.40;1.00;;;24.50;99.90;;;;;;5050933;28;20259;-75
2022/04/03 05:58:45;;;;;;;4.10;1.05;;;24.50;99.90;;;;;;5048594;28;20197;-80
2022/04/03 06:01:16;;;;;;;2.20;0.85;;;24.40;99.90;;;;;;5051364;28;20247;-77
2022/04/03 06:03:47;;;;;;;2.03;0.82;;;24.40;99.90;;;;;;5054342;28;20556;-78
2022/04/03 06:06:17;;;;;;;1.80;0.77;;;24.40;99.90;;;;;;5048679;28;20201;-79
2022/04/03 06:08:48;;;;;;;2.53;0.90;;;24.40;99.90;;;;;;5053301;28;20209;-77
2022/04/03 06:11:19;;;;;;;2.13;1.00;;;24.30;99.90;;;;;;5054181;28;20269;-79
2022/04/03 06:13:52;;;;;;;3.80;0.95;;;24.40;99.90;;;;;;5054505;28;20269;-81
2022/04/03 06:16:23;;;;;;;3.08;1.00;;;24.30;99.90;;;;;;5053678;28;20212;-76
2022/04/03 06:18:53;;;;;;;3.45;1.10;;;24.30;99.90;;;;;;5054032;28;20185;-71
2022/04/03 06:21:24;;;;;;;3.42;1.10;;;24.30;99.90;;;;;;5050898;28;20194;-73
2022/04/03 06:23:55;;;;;;;2.72;1.23;;;24.30;99.90;;;;;;5051041;28;20202;-71
2022/04/03 06:26:25;;;;;;;2.92;1.27;;;24.20;99.90;;;;;;5052219;28;20189;-81
2022/04/03 06:28:58;;;;;;;3.70;1.30;;;24.20;99.90;;;;;;5053252;28;20191;-77
2022/04/03 06:31:28;;;;;;;3.28;1.15;;;24.10;99.90;;;;;;5050782;28;20186;-80
2022/04/03 06:34:02;;;;;;;2.97;1.00;;;24.10;99.90;;;;;;5053362;28;20186;-79
2022/04/03 06:36:32;;;;;;;4.05;0.93;;;24.00;99.90;;;;;;5051196;28;20192;-72
2022/04/03 06:39:03;;;;;;;3.90;1.13;;;23.80;99.90;;;;;;5050008;28;20194;-82
2022/04/03 06:41:34;;;;;;;2.80;1.33;;;23.80;99.90;;;;;;5050756;28;20256;-78
2022/04/03 06:44:07;;;;;;;3.20;1.23;;;23.70;99.90;;;;;;5046379;28;20251;-77
2022/04/03 06:46:38;;;;;;;1.55;1.10;;;23.60;99.90;;;;;;5048308;28;20217;-76
2022/04/03 06:49:08;;;;;;;2.08;1.27;;;23.60;99.90;;;;;;5054898;28;20631;-77
2022/04/03 06:51:39;;;;;;;2.13;1.20;;;23.50;99.90;;;;;;5050571;28;20193;-78
2022/04/03 06:54:10;;;;;;;3.72;1.38;;;23.40;99.90;;;;;;5052901;28;20202;-78
2022/04/03 06:56:40;;;;;;;2.58;1.30;;;23.30;99.90;;;;;;5048081;28;20202;-73
2022/04/03 06:59:13;;;;;;;2.33;1.45;;;23.30;99.90;;;;;;5053736;28;20262;-79
2022/04/03 07:01:44;;;;;;;3.53;1.65;;;23.20;99.90;;;;;;5048712;28;20198;-78
2022/04/03 07:04:14;;;;;;;3.80;1.80;;;23.10;99.90;;;;;;5044197;28;20252;-71
2022/04/03 07:06:45;;;;;;;2.75;1.60;;;23.10;99.90;;;;;;5052166;28;20189;-72
2022/04/03 07:09:15;;;;;;;3.05;1.40;;;23.10;99.90;;;;;;5048723;28;20193;-73
2022/04/03 07:11:46;;;;;;;3.42;1.33;;;23.00;99.90;;;;;;5051285;28;20186;-73
2022/04/03 07:14:19;;;;;;;3.33;1.67;;;22.90;99.90;;;;;;5050464;28;20267;-72
2022/04/03 07:16:49;;;;;;;2.30;1.20;;;22.90;99.90;;;;;;5053746;28;20186;-72
2022/04/03 07:19:20;;;;;;;4.68;1.30;;;22.80;99.90;;;;;;5053146;28;20604;-74
2022/04/03 07:21:51;;;;;;;3.65;1.70;;;22.80;99.90;;;;;;5048525;28;20563;-76
2022/04/03 07:24:21;;;;;;;2.50;1.17;;;22.70;99.90;;;;;;5050977;28;20270;-78
2022/04/03 07:26:53;;;;;;;4.40;1.40;;;22.70;99.90;;;;;;5038961;28;20216;-74
2022/04/03 07:29:26;;;;;;;1.83;1.15;;;22.60;99.90;;;;;;5046097;28;20186;-74
2022/04/03 07:31:57;;;;;;;3.63;1.52;;;22.60;99.90;;;;;;5043851;28;20204;-72
2022/04/03 07:34:27;;;;;;;2.03;1.45;;;22.60;99.90;;;;;;5052437;28;20209;-79
2022/04/03 07:36:58;;;;;;;4.38;1.60;;;22.60;99.90;;;;;;5043091;28;20188;-72
2022/04/03 07:39:30;;;;;;;2.15;1.38;;;22.50;99.90;;;;;;5050249;28;20614;-76
2022/04/03 07:42:02;;;;;;;3.95;1.52;;;22.50;99.90;;;;;;5052295;28;20289;-78
2022/04/03 07:44:35;;;;;;;4.00;1.65;;;22.40;99.90;;;;;;5045040;28;20202;-76
2022/04/03 07:47:06;;;;;;;2.42;1.40;;;22.40;99.90;;;;;;5052301;28;20221;-79
2022/04/03 07:49:37;;;;;;;1.95;1.30;;;22.40;99.90;;;;;;5051799;28;20263;-79
2022/04/03 07:52:08;;;;;;;5.38;1.35;;;22.30;99.90;;;;;;5053147;28;20190;-78
2022/04/03 07:54:39;;;;;;;4.97;1.30;;;22.30;99.90;;;;;;5052823;28;20225;-78
2022/04/03 07:57:10;;;;;;;2.10;1.33;;;22.20;99.90;;;;;;5052980;28;20197;-77
2022/04/03 07:59:42;;;;;;;2.75;1.17;;;22.20;99.90;;;;;;5051597;28;20616;-77
2022/04/03 08:02:13;;;;;;;3.20;1.20;;;22.10;99.90;;;;;;5052445;28;20267;-76
2022/04/03 08:04:44;;;;;;;1.65;1.20;;;22.10;99.90;;;;;;5052753;28;20200;-76
2022/04/03 08:07:14;;;;;;;4.10;1.25;;;22.10;99.90;;;;;;5052450;28;20202;-77
2022/04/03 08:09:45;;;;;;;2.65;1.23;;;22.00;99.90;;;;;;5052259;28;20185;-74
2022/04/03 08:12:16;;;;;;;3.53;1.30;;;21.90;99.90;;;;;;5052816;28;20193;-77
2022/04/03 08:14:49;;;;;;;2.58;1.20;;;21.90;99.90;;;;;;5051865;28;20274;-79
2022/04/03 08:17:20;;;;;;;4.20;1.38;;;21.90;99.90;;;;;;5052571;28;20196;-77
2022/04/03 08:19:50;;;;;;;2.63;1.08;;;21.80;99.90;;;;;;5052354;28;20186;-78
2022/04/03 08:22:21;;;;;;;3.22;1.08;;;21.80;99.90;;;;;;5052570;28;20637;-76
2022/04/03 08:24:52;;;;;;;6.05;1.38;;;21.80;99.90;;;;;;5052516;28;20190;-79
2022/04/03 08:27:22;;;;;;;2.20;1.10;;;21.80;99.90;;;;;;5051394;28;20189;-74
2022/04/03 08:29:55;;;;;;;2.38;0.90;;;21.70;99.90;;;;;;5052176;28;20518;-76
2022/04/03 08:32:25;;;;;;;3.58;1.30;;;21.70;99.90;;;;;;5050647;28;20675;-79
2022/04/03 08:34:56;;;;;;;1.65;1.00;;;21.70;99.90;;;;;;5054265;28;20209;-79
2022/04/03 08:37:27;;;;;;;1.98;0.90;;;21.60;99.90;;;;;;5055886;28;20635;-79
2022/04/03 08:39:57;;;;;;;2.90;1.13;;;21.60;99.90;;;;;;5056219;28;20667;-77
2022/04/03 08:42:28;;;;;;;2.67;1.10;;;21.60;99.90;;;;;;5056566;28;20196;-78
2022/04/03 08:45:01;;;;;;;1.85;1.05;;;21.50;99.90;;;;;;5055950;28;20189;-78
2022/04/03 08:47:33;;;;;;;2.88;1.10;;;21.50;99.90;;;;;;5054840;28;20205;-79
2022/04/03 08:50:05;;;;;;;3.17;1.00;;;21.50;99.90;;;;;;5055677;28;20251;-77
2022/04/03 08:52:37;;;;;;;1.88;0.90;;;21.40;99.90;;;;;;5055310;28;20190;-79
2022/04/03 08:55:08;;;;;;;3.13;1.20;;;21.40;99.90;;;;;;5055282;28;20261;-78
2022/04/03 08:57:39;;;;;;;1.30;1.00;;;21.30;99.90;;;;;;5055893;28;20194;-78
2022/04/03 09:00:13;;;;;;;4.07;1.20;;;21.30;99.90;;;;;;5055501;28;20259;-79
2022/04/03 09:02:45;;;;;;;2.08;1.08;;;21.30;99.90;;;;;;5055960;28;20186;-78
2022/04/03 09:05:16;;;;;;;3.88;1.20;;;21.20;99.90;;;;;;5055713;28;20251;-78
2022/04/03 09:08:00;;;;;;;2.05;1.30;;;21.20;99.90;;;;;;5054505;28;20235;-78
2022/04/03 09:10:31;;;;;;;3.60;1.30;;;21.20;99.90;;;;;;5055847;28;20189;-78
2022/04/03 09:13:02;;;;;;;2.90;0.93;;;21.10;99.90;;;;;;5047333;28;20193;-75
2022/04/03 09:15:35;;;;;;;3.67;1.17;;;21.10;99.90;;;;;;5052739;28;20213;-78
2022/04/03 09:18:08;;;;;;;1.95;1.20;;;21.10;99.90;;;;;;5054377;28;20242;-78
2022/04/03 09:20:40;;;;;;;3.13;1.10;;;21.10;99.90;;;;;;5055528;28;20223;-77
2022/04/03 09:23:11;;;;;;;3.90;1.27;;;21.00;99.90;;;;;;5055344;28;20580;-77
2022/04/03 09:25:43;;;;;;;2.53;1.13;;;21.00;99.90;;;;;;5055932;28;20186;-79
2022/04/03 09:28:15;;;;;;;2.00;0.98;;;20.90;99.90;;;;;;5051414;28;20276;-74
2022/04/03 09:30:49;;;;;;;3.00;1.20;;;20.90;99.90;;;;;;5053957;28;20232;-74
2022/04/03 09:33:20;;;;;;;3.05;1.20;;;20.90;99.90;;;;;;5051238;28;20900;-77
2022/04/03 09:35:59;;;;;;;3.08;1.27;;;20.90;99.90;;;;;;5048883;28;20224;-72
2022/04/03 09:38:30;;;;;;;47.55;32.30;;;20.90;99.90;;;;;;5053330;28;20707;-77
2022/04/03 09:41:02;;;;;;;53.53;32.33;;;20.80;99.90;;;;;;5055082;28;20215;-79
2022/04/03 09:43:38;;;;;;;38.08;25.42;;;20.80;99.90;;;;;;5053789;28;20657;-77
2022/04/03 09:46:14;;;;;;;11.25;6.45;;;20.70;99.90;;;;;;5048831;28;20217;-75
2022/04/03 09:48:45;;;;;;;7.35;3.63;;;20.70;99.90;;;;;;5054486;28;20233;-76
2022/04/03 09:51:19;;;;;;;2.60;1.10;;;20.60;99.90;;;;;;5049644;28;20317;-77
2022/04/03 09:53:52;;;;;;;3.92;2.00;;;20.50;99.90;;;;;;5055380;28;20194;-76
2022/04/03 09:56:31;;;;;;;4.20;2.50;;;20.50;99.90;;;;;;5055185;28;20300;-77
2022/04/03 09:59:03;;;;;;;6.00;1.90;;;20.50;99.90;;;;;;5053738;28;20220;-79
2022/04/03 10:01:36;;;;;;;1.75;1.08;;;20.40;99.90;;;;;;5054627;28;20186;-77
2022/04/03 10:04:11;;;;;;;2.67;2.08;;;20.50;99.90;;;;;;5053492;28;20190;-78
2022/04/03 10:06:42;;;;;;;3.10;1.40;;;20.40;99.90;;;;;;5054457;28;20204;-78
2022/04/03 10:09:15;;;;;;;3.40;2.30;;;20.40;99.90;;;;;;5054733;28;20280;-76
2022/04/03 10:11:48;;;;;;;1.80;1.20;;;20.30;99.90;;;;;;5053232;28;20181;-78
2022/04/03 10:14:22;;;;;;;3.75;1.50;;;20.20;99.90;;;;;;5053944;28;20190;-75
2022/04/03 10:16:55;;;;;;;3.20;0.90;;;20.10;99.90;;;;;;5052390;28;20301;-77
2022/04/03 10:19:25;;;;;;;3.63;1.20;;;20.20;99.90;;;;;;5049259;28;20185;-78
2022/04/03 10:21:58;;;;;;;1.55;0.82;;;20.30;99.90;;;;;;5054062;28;20193;-78
2022/04/03 10:24:30;;;;;;;2.38;1.00;;;20.30;99.90;;;;;;5054394;28;20193;-78
2022/04/03 10:27:04;;;;;;;2.13;0.80;;;20.30;99.90;;;;;;5053726;28;20198;-77
2022/04/03 10:29:36;;;;;;;2.83;0.93;;;20.20;99.90;;;;;;5054397;28;20189;-76
2022/04/03 10:32:10;;;;;;;2.60;1.50;;;20.20;99.90;;;;;;5053874;28;20190;-77
2022/04/03 10:34:49;;;;;;;3.25;1.17;;;20.00;99.90;;;;;;5052830;28;20182;-77
2022/04/03 10:37:33;;;;;;;2.05;1.45;;;20.00;99.90;;;;;;5046498;28;20216;-77
2022/04/03 10:40:09;;;;;;;1.70;1.23;;;19.90;99.90;;;;;;5051974;28;20269;-76
2022/04/03 10:42:52;;;;;;;2.92;1.20;;;19.80;99.90;;;;;;5051656;28;20190;-78
2022/04/03 10:45:31;;;;;;;2.28;0.95;;;19.70;99.90;;;;;;5049002;28;20641;-76
2022/04/03 10:48:34;;;;;;;1.40;1.13;;;19.70;99.90;;;;;;5053325;28;20232;-77
2022/04/03 10:51:13;;;;;;;2.90;0.88;;;19.70;99.90;;;;;;5051425;28;20193;-78
2022/04/03 10:53:44;;;;;;;1.77;1.05;;;19.70;99.90;;;;;;5054136;28;20552;-78
2022/04/03 10:56:24;;;;;;;3.83;1.00;;;19.70;99.90;;;;;;5052273;28;20267;-78
2022/04/03 10:58:58;;;;;;;1.70;0.80;;;19.60;99.90;;;;;;5053563;28;20186;-78
2022/04/03 11:01:31;;;;;;;3.00;1.10;;;19.50;99.90;;;;;;5053897;28;20186;-77
2022/04/03 11:04:10;;;;;;;2.13;0.93;;;19.50;99.90;;;;;;5050257;28;20268;-77
2022/04/03 11:06:42;;;;;;;3.40;1.05;;;19.50;99.90;;;;;;5047475;28;20632;-78
2022/04/03 11:09:27;;;;;;;3.50;1.10;;;19.50;99.90;;;;;;5053639;28;20622;-78
2022/04/03 11:12:01;;;;;;;1.73;1.00;;;19.40;99.90;;;;;;5053333;28;20640;-77
2022/04/03 11:14:59;;;;;;;1.10;0.90;;;19.40;99.90;;;;;;5053300;28;20633;-78
2022/04/03 11:17:54;;;;;;;1.60;1.00;;;19.30;99.90;;;;;;5052383;28;20221;-77
2022/04/03 11:20:42;;;;;;;2.33;1.00;;;19.30;99.90;;;;;;5053206;28;20585;-79
2022/04/03 11:23:16;;;;;;;2.17;1.25;;;19.30;99.90;;;;;;5053828;28;20193;-77
2022/04/03 11:25:47;;;;;;;3.88;1.27;;;19.30;99.90;;;;;;5052692;28;20205;-77
2022/04/03 11:28:19;;;;;;;2.50;1.00;;;19.30;99.90;;;;;;5052399;28;20185;-75
2022/04/03 11:30:51;;;;;;;2.67;1.30;;;19.30;99.90;;;;;;5053599;28;20186;-78
2022/04/03 11:33:23;;;;;;;3.47;1.08;;;19.30;99.90;;;;;;5052773;28;20251;-73
2022/04/03 11:35:55;;;;;;;3.58;1.20;;;19.30;99.90;;;;;;5046191;28;20206;-78
2022/04/03 11:38:34;;;;;;;1.83;1.00;;;19.30;99.90;;;;;;5053081;28;20682;-78
2022/04/03 11:41:07;;;;;;;2.53;1.10;;;19.30;99.90;;;;;;5052855;28;20255;-77
2022/04/03 11:43:39;;;;;;;2.53;1.02;;;19.30;99.90;;;;;;5051027;28;20658;-78
2022/04/03 11:46:13;;;;;;;2.85;1.17;;;19.30;99.90;;;;;;5055784;28;20294;-78
2022/04/03 11:48:45;;;;;;;1.63;0.93;;;19.30;99.90;;;;;;5056225;28;20283;-77
2022/04/03 11:51:20;;;;;;;1.63;0.98;;;19.30;99.90;;;;;;5052564;28;20268;-76
2022/04/03 11:53:59;;;;;;;3.42;1.13;;;19.30;99.90;;;;;;5051874;28;20185;-78
2022/04/03 11:56:31;;;;;;;1.42;0.82;;;19.30;99.90;;;;;;5051887;28;20209;-78
2022/04/03 11:59:03;;;;;;;3.40;1.08;;;19.40;99.90;;;;;;5052124;28;20188;-78
2022/04/03 12:01:35;;;;;;;1.50;0.90;;;19.40;99.90;;;;;;5051855;28;20190;-77
2022/04/03 12:04:08;;;;;;;2.22;1.00;;;19.40;99.90;;;;;;5053421;28;20190;-78
2022/04/03 12:06:42;;;;;;;1.73;0.85;;;19.50;99.90;;;;;;5050956;28;20187;-76
2022/04/03 12:09:15;;;;;;;2.88;0.80;;;19.50;99.90;;;;;;5045727;28;20272;-78
2022/04/03 12:11:48;;;;;;;4.50;1.08;;;19.50;99.90;;;;;;5051264;28;20197;-77
2022/04/03 12:14:26;;;;;;;3.05;0.80;;;19.50;99.90;;;;;;5052497;28;20542;-77
2022/04/03 12:17:03;;;;;;;4.30;1.00;;;19.60;99.90;;;;;;5050727;28;20300;-76
2022/04/03 12:19:37;;;;;;;3.17;1.17;;;19.50;99.90;;;;;;5049583;28;20193;-78
2022/04/03 12:22:12;;;;;;;3.15;1.00;;;19.50;99.90;;;;;;5050174;28;20193;-77
2022/04/03 12:24:45;;;;;;;3.67;1.00;;;19.50;99.90;;;;;;5051621;28;20637;-72
2022/04/03 12:27:22;;;;;;;2.70;1.00;;;19.50;99.90;;;;;;5047710;28;20649;-77
2022/04/03 12:29:53;;;;;;;1.98;0.98;;;19.40;99.90;;;;;;5050953;28;20194;-77
2022/04/03 12:32:35;;;;;;;1.95;0.65;;;19.30;99.90;;;;;;5051762;28;20190;-76
2022/04/03 12:35:08;;;;;;;2.90;0.90;;;19.20;99.90;;;;;;5050702;28;20200;-77
2022/04/03 12:37:42;;;;;;;1.70;0.65;;;19.20;99.90;;;;;;5052277;28;20231;-77
2022/04/03 12:40:15;;;;;;;1.90;0.90;;;19.20;99.90;;;;;;5049289;28;20197;-76
2022/04/03 12:42:46;;;;;;;0.85;0.70;;;19.20;99.90;;;;;;5050841;28;20190;-75
2022/04/03 12:45:21;;;;;;;1.30;0.70;;;19.20;99.90;;;;;;5050850;28;20217;-78
2022/04/03 12:48:00;;;;;;;2.50;0.70;;;19.10;99.90;;;;;;5050707;28;20543;-77
2022/04/03 12:50:38;;;;;;;1.05;0.70;;;19.10;99.90;;;;;;5049310;28;20680;-77
2022/04/03 12:53:16;;;;;;;1.98;0.90;;;19.20;99.90;;;;;;5050626;28;20204;-77
2022/04/03 12:55:53;;;;;;;1.50;0.57;;;19.20;99.90;;;;;;5046122;28;20539;-74
2022/04/03 12:58:26;;;;;;;1.80;0.60;;;19.20;99.90;;;;;;5051803;28;20197;-77
2022/04/03 13:01:01;;;;;;;1.48;0.63;;;19.20;99.90;;;;;;5051563;28;20186;-77
2022/04/03 13:03:36;;;;;;;1.40;0.63;;;19.20;99.90;;;;;;5050691;28;20193;-77
2022/04/03 13:06:08;;;;;;;3.25;1.00;;;19.20;99.90;;;;;;5051300;28;20243;-77
2022/04/03 13:08:50;;;;;;;1.85;0.70;;;19.20;99.90;;;;;;5050964;28;20221;-77
2022/04/03 13:11:34;;;;;;;2.83;0.88;;;19.20;99.90;;;;;;5051456;28;20189;-78